createdAt,value
2022-09-03T00:00:59.798Z,29.51
2022-09-03T00:03:40.090Z,29.55
2022-09-03T00:06:20.682Z,29.55
2022-09-03T00:09:23.410Z,29.55
2022-09-03T00:12:12.242Z,29.61
2022-09-03T00:14:50.151Z,29.61
2022-09-03T00:17:25.110Z,29.62
2022-09-03T00:20:09.851Z,29.73
2022-09-03T00:22:45.688Z,29.68
2022-09-03T00:25:22.016Z,29.71
2022-09-03T00:27:59.787Z,29.72
2022-09-03T00:30:31.477Z,29.70
2022-09-03T00:33:13.114Z,29.70
2022-09-03T00:35:58.639Z,29.75
2022-09-03T00:38:30.008Z,29.77
2022-09-03T00:41:12.682Z,29.80
2022-09-03T00:44:00.985Z,29.78
2022-09-03T00:46:54.158Z,29.81
2022-09-03T00:50:06.257Z,29.81
2022-09-03T00:52:48.199Z,29.82
2022-09-03T00:55:59.421Z,29.86
2022-09-03T00:59:08.160Z,29.88
2022-09-03T01:01:41.667Z,29.88
2022-09-03T01:04:28.846Z,29.82
2022-09-03T01:07:21.204Z,29.83
2022-09-03T01:10:29.623Z,29.83
2022-09-03T01:13:17.575Z,29.86
2022-09-03T01:16:29.188Z,29.89
2022-09-03T01:19:33.580Z,29.93
2022-09-03T01:22:29.472Z,29.92
2022-09-03T01:25:20.692Z,29.91
2022-09-03T01:28:25.357Z,29.90
2022-09-03T01:31:26.456Z,29.97
2022-09-03T01:34:22.526Z,29.95
2022-09-03T01:37:18.264Z,30.00
2022-09-03T01:43:06.516Z,30.10
2022-09-03T01:46:02.423Z,30.17
2022-09-03T01:48:48.684Z,30.22
2022-09-03T01:51:25.834Z,30.26
2022-09-03T01:57:35.638Z,30.23
2022-09-03T02:00:12.709Z,30.31
2022-09-03T02:02:45.693Z,30.31
2022-09-03T02:05:28.479Z,30.40
2022-09-03T02:08:03.880Z,30.40
2022-09-03T02:10:45.438Z,30.36
2022-09-03T02:13:34.335Z,30.30
2022-09-03T02:16:13.454Z,30.35
2022-09-03T02:18:48.827Z,30.37
2022-09-03T02:21:22.704Z,30.37
2022-09-03T02:23:53.465Z,30.38
2022-09-03T02:26:26.991Z,30.44
2022-09-03T02:28:58.441Z,30.48
2022-09-03T02:31:30.339Z,30.50
2022-09-03T02:34:01.247Z,30.59
2022-09-03T02:36:36.738Z,30.53
2022-09-03T02:39:07.580Z,30.53
2022-09-03T02:41:38.195Z,30.53
2022-09-03T02:44:30.489Z,30.56
2022-09-03T02:47:02.268Z,30.57
2022-09-03T02:49:33.420Z,30.62
2022-09-03T02:52:12.324Z,30.70
2022-09-03T02:54:43.846Z,30.71
2022-09-03T02:57:17.597Z,30.73
2022-09-03T02:59:57.631Z,30.75
2022-09-03T03:02:27.895Z,30.76
2022-09-03T03:04:58.473Z,30.73
2022-09-03T03:07:30.517Z,30.84
2022-09-03T03:10:02.095Z,30.93
2022-09-03T03:12:32.999Z,31.05
2022-09-03T08:56:44.709Z,30.85
2022-09-03T08:59:15.434Z,30.95
2022-09-03T09:02:05.955Z,31.02
2022-09-03T09:05:06.075Z,31.15
2022-09-03T09:07:53.514Z,31.16
2022-09-03T09:11:17.045Z,31.24
2022-09-03T09:14:00.796Z,31.24
2022-09-03T09:16:38.201Z,31.24
2022-09-03T09:20:10.856Z,31.25
2022-09-03T09:22:52.015Z,31.25
2022-09-03T09:25:26.023Z,31.23
2022-09-03T09:28:15.771Z,31.23
2022-09-03T09:30:50.180Z,31.22
2022-09-03T09:33:22.955Z,31.20
2022-09-03T09:35:53.722Z,31.16
2022-09-03T09:38:35.889Z,31.17
2022-09-03T09:41:24.199Z,31.17
2022-09-03T09:44:05.600Z,31.17
2022-09-03T09:46:42.220Z,31.14
2022-09-03T09:49:34.488Z,31.13
2022-09-03T09:52:14.722Z,31.13
2022-09-03T09:54:48.541Z,31.11
2022-09-03T09:57:25.369Z,31.10
2022-09-03T10:00:16.167Z,31.10
2022-09-03T10:02:57.585Z,31.10
2022-09-03T10:05:30.948Z,31.08
2022-09-03T10:08:07.970Z,31.06
2022-09-03T10:10:47.566Z,31.09
2022-09-03T10:13:25.223Z,31.09
2022-09-03T10:16:06.617Z,31.06
2022-09-03T10:18:42.753Z,31.06
2022-09-03T10:21:19.161Z,31.07
2022-09-03T10:24:20.239Z,31.07
2022-09-03T10:26:50.943Z,31.05
2022-09-03T10:29:32.852Z,31.07
2022-09-03T10:32:37.853Z,31.06
2022-09-03T10:35:30.960Z,31.05
2022-09-03T10:38:36.843Z,31.04
2022-09-03T10:41:31.536Z,31.04
2022-09-03T10:44:13.853Z,31.03
2022-09-03T10:47:15.700Z,31.02
2022-09-03T10:50:12.904Z,31.01
2022-09-03T10:53:10.355Z,31.02
2022-09-03T10:56:12.652Z,30.99
2022-09-03T10:59:15.780Z,30.97
2022-09-03T11:02:05.127Z,30.98
2022-09-03T11:05:02.854Z,30.96
2022-09-03T11:07:51.651Z,30.96
2022-09-03T11:10:52.873Z,30.95
2022-09-03T11:13:49.399Z,30.92
2022-09-03T11:16:34.321Z,30.92
2022-09-03T11:19:10.822Z,30.93
2022-09-03T11:21:44.644Z,30.89
2022-09-03T11:24:25.008Z,30.89
2022-09-03T11:27:05.154Z,30.83
2022-09-03T11:29:55.772Z,30.83
2022-09-03T11:32:34.626Z,30.78
2022-09-03T11:35:16.443Z,30.70
2022-09-03T11:38:23.815Z,30.68
2022-09-03T11:41:18.304Z,30.75
2022-09-03T11:43:49.629Z,30.67
2022-09-03T11:46:26.472Z,30.65
2022-09-03T11:49:14.755Z,30.64
2022-09-03T11:51:46.722Z,30.63
2022-09-03T11:54:26.500Z,30.69
2022-09-03T11:57:15.914Z,30.65
2022-09-03T11:59:47.710Z,30.62
2022-09-03T12:02:43.406Z,30.64
2022-09-03T12:05:38.404Z,30.66
2022-09-03T12:08:23.932Z,30.71
2022-09-03T12:11:12.509Z,30.69
2022-09-03T12:14:17.824Z,30.70
2022-09-03T12:17:05.684Z,30.72
2022-09-03T12:19:42.849Z,30.68
2022-09-03T12:22:18.457Z,30.71
2022-09-03T12:24:49.359Z,30.66
2022-09-03T12:27:27.379Z,30.66
2022-09-03T12:30:02.724Z,30.65
2022-09-03T12:32:39.764Z,30.62
2022-09-03T12:38:13.813Z,30.65
2022-09-03T12:43:39.149Z,30.62
2022-09-03T12:46:18.226Z,30.63
2022-09-03T12:51:53.622Z,30.58
2022-09-03T12:54:27.639Z,30.67
2022-09-03T12:57:02.434Z,30.60
2022-09-03T12:59:38.360Z,30.63
2022-09-03T13:02:23.520Z,30.51
2022-09-03T13:04:55.439Z,30.52
2022-09-03T13:07:50.356Z,30.52
2022-09-03T13:10:33.799Z,30.48
2022-09-03T13:13:10.474Z,30.46
2022-09-03T13:15:41.293Z,30.42
2022-09-03T13:18:27.064Z,30.45
2022-09-03T13:21:14.937Z,30.45
2022-09-03T13:24:09.057Z,30.52
2022-09-03T13:26:47.970Z,30.52
2022-09-03T13:29:52.739Z,30.48
2022-09-03T13:32:37.005Z,30.55
2022-09-03T13:35:35.192Z,30.56
2022-09-03T13:38:41.199Z,30.60
2022-09-03T13:41:23.935Z,30.58
2022-09-03T13:44:12.137Z,30.62
2022-09-03T13:46:52.103Z,30.59
2022-09-03T13:50:13.132Z,30.59
2022-09-03T13:52:46.813Z,30.63
2022-09-03T13:55:36.115Z,30.67
2022-09-03T13:58:22.325Z,30.71
2022-09-03T14:01:05.716Z,30.72
2022-09-03T14:03:51.507Z,30.73
2022-09-03T14:06:50.408Z,30.76
2022-09-03T14:09:27.100Z,30.80
2022-09-03T14:12:10.835Z,30.80
2022-09-03T14:15:08.487Z,30.84
2022-09-03T14:18:00.821Z,30.80
2022-09-03T14:20:57.673Z,30.83
2022-09-03T14:24:05.742Z,30.88
2022-09-03T14:26:40.861Z,30.89
2022-09-03T14:29:20.079Z,30.90
2022-09-03T14:32:08.802Z,30.90
2022-09-03T14:34:51.481Z,30.89
2022-09-03T14:37:46.168Z,30.92
2022-09-03T14:40:16.940Z,30.90
2022-09-03T14:43:08.388Z,30.88
2022-09-03T14:45:59.284Z,30.91
2022-09-03T14:48:40.951Z,30.90
2022-09-03T14:52:01.428Z,30.92
2022-09-03T14:55:09.742Z,30.91
2022-09-03T14:57:52.667Z,30.92
2022-09-03T15:01:01.424Z,30.93
2022-09-03T15:03:50.940Z,30.94
2022-09-03T15:06:58.657Z,30.96
2022-09-03T15:09:34.212Z,30.94
2022-09-03T15:12:13.340Z,30.93
2022-09-03T15:15:22.724Z,30.92
2022-09-03T15:18:24.192Z,30.93
2022-09-03T15:21:22.727Z,30.95
2022-09-03T15:24:16.863Z,30.96
2022-09-03T15:27:10.758Z,30.96
2022-09-03T15:30:04.546Z,30.93
2022-09-03T15:32:59.632Z,30.91
2022-09-03T15:35:54.853Z,30.96
2022-09-03T15:38:31.492Z,30.92
2022-09-03T15:41:11.041Z,30.96
2022-09-03T15:43:43.398Z,30.93
2022-09-03T15:46:32.947Z,30.94
2022-09-03T15:49:21.047Z,30.94
2022-09-03T15:52:10.114Z,30.93
2022-09-03T15:54:59.814Z,30.92
2022-09-03T15:57:41.905Z,30.93
2022-09-03T16:00:22.558Z,30.92
2022-09-03T16:03:11.692Z,30.90
2022-09-03T16:05:49.657Z,30.91
2022-09-03T16:08:45.167Z,30.91
2022-09-03T16:11:53.849Z,30.88
2022-09-03T16:14:34.402Z,30.88
2022-09-03T16:17:27.560Z,30.84
2022-09-03T16:20:04.351Z,30.84
2022-09-03T16:22:50.067Z,30.86
2022-09-03T16:25:26.324Z,30.86
2022-09-03T16:28:11.449Z,30.87
2022-09-03T16:30:43.509Z,30.84
2022-09-03T16:33:21.680Z,30.86
2022-09-03T16:36:30.286Z,30.87
2022-09-03T16:39:31.615Z,30.87
2022-09-03T16:42:25.067Z,30.87
2022-09-03T16:45:02.595Z,30.86
2022-09-03T16:47:40.132Z,30.84
2022-09-03T16:50:27.285Z,30.87
2022-09-03T16:53:18.976Z,30.82
2022-09-03T16:56:19.414Z,30.81
2022-09-03T16:59:14.901Z,30.83
2022-09-03T17:01:57.954Z,30.83
2022-09-03T17:04:34.847Z,30.79
2022-09-03T17:07:41.047Z,30.80
2022-09-03T17:10:27.562Z,30.83
2022-09-03T17:13:16.731Z,30.79
2022-09-03T17:16:06.767Z,30.79
2022-09-03T17:18:40.224Z,30.78
2022-09-03T17:21:19.732Z,30.79
2022-09-03T17:24:02.320Z,30.79
2022-09-03T17:26:35.766Z,30.79
2022-09-03T17:29:25.428Z,30.78
2022-09-03T17:32:23.770Z,30.77
2022-09-03T17:35:24.690Z,30.74
2022-09-03T17:38:17.867Z,30.73
2022-09-03T17:41:18.142Z,30.71
2022-09-03T17:44:27.171Z,30.72
2022-09-03T17:47:22.358Z,30.67
2022-09-03T17:50:00.823Z,30.65
2022-09-03T17:52:52.621Z,30.64
2022-09-03T17:55:40.347Z,30.65
2022-09-03T17:58:18.113Z,30.65
2022-09-03T18:01:18.414Z,30.64
2022-09-03T18:04:17.558Z,30.65
2022-09-03T18:06:54.577Z,30.64
2022-09-03T18:09:43.777Z,30.62
2022-09-03T18:12:41.650Z,30.64
2022-09-03T18:15:16.640Z,30.62
2022-09-03T18:18:02.466Z,30.63
2022-09-03T18:21:22.225Z,30.59
2022-09-03T18:24:16.228Z,30.61
2022-09-03T18:27:19.675Z,30.59
2022-09-03T18:30:24.937Z,30.57
2022-09-03T18:33:13.931Z,30.59
2022-09-03T18:36:05.766Z,30.57
2022-09-03T18:38:56.944Z,30.55
2022-09-03T18:42:20.019Z,30.56
2022-09-03T18:45:23.575Z,30.56
2022-09-03T18:48:42.986Z,30.53
2022-09-03T18:51:52.495Z,30.51
2022-09-03T18:55:07.496Z,30.51
2022-09-03T18:58:28.980Z,30.49
2022-09-03T19:01:42.863Z,30.50
2022-09-03T19:05:05.407Z,30.47
2022-09-03T19:08:13.312Z,30.49
2022-09-03T19:11:37.663Z,30.49
2022-09-03T19:14:50.529Z,30.48
2022-09-03T19:17:57.815Z,30.48
2022-09-03T19:20:57.758Z,30.45
2022-09-03T19:23:46.924Z,30.46
2022-09-03T19:27:37.482Z,30.45
2022-09-03T19:30:31.491Z,30.47
2022-09-03T19:33:36.936Z,30.46
2022-09-03T19:36:38.121Z,30.42
2022-09-03T19:39:38.721Z,30.40
2022-09-03T19:43:01.443Z,30.37
2022-09-03T19:46:04.848Z,30.36
2022-09-03T19:49:14.581Z,30.37
2022-09-03T19:52:14.885Z,30.41
2022-09-03T19:55:03.927Z,30.39
2022-09-03T19:57:53.238Z,30.37
2022-09-03T20:00:45.049Z,30.36
2022-09-03T20:03:35.567Z,30.35
2022-09-03T20:06:29.138Z,30.35
2022-09-03T20:09:26.897Z,30.34
2022-09-03T20:12:07.242Z,30.33
2022-09-03T20:14:41.024Z,30.35
2022-09-03T20:17:16.529Z,30.35
2022-09-03T20:19:56.275Z,30.34
2022-09-03T20:22:47.321Z,30.36
2022-09-03T20:25:18.044Z,30.32
2022-09-03T20:28:28.867Z,30.32
2022-09-03T20:31:10.446Z,30.36
2022-09-03T20:34:05.671Z,30.33
2022-09-03T20:37:27.177Z,30.32
2022-09-03T20:40:13.815Z,30.32
2022-09-03T20:43:07.346Z,30.30
2022-09-03T20:46:00.256Z,30.26
2022-09-03T20:49:03.866Z,30.24
2022-09-03T20:51:55.846Z,30.28
2022-09-03T20:54:54.470Z,30.31
2022-09-03T20:57:37.050Z,30.32
2022-09-03T21:00:15.270Z,30.40
2022-09-03T21:03:04.337Z,30.42
2022-09-03T21:05:34.917Z,30.44
2022-09-03T21:08:14.422Z,30.40
2022-09-03T21:10:51.253Z,30.36
2022-09-03T21:13:38.837Z,30.36
2022-09-03T21:16:37.388Z,30.39
2022-09-03T21:19:19.954Z,30.35
2022-09-03T21:22:07.085Z,30.35
2022-09-03T21:24:43.045Z,30.31
2022-09-03T21:27:20.878Z,30.27
2022-09-03T21:30:03.833Z,30.27
2022-09-03T21:32:43.969Z,30.25
2022-09-03T21:35:35.937Z,30.22
2022-09-03T21:38:15.482Z,30.18
2022-09-03T21:40:57.942Z,30.18
2022-09-03T21:43:49.449Z,30.18
2022-09-03T21:46:28.500Z,30.17
2022-09-03T21:49:02.850Z,30.17
2022-09-03T21:51:55.920Z,30.13
2022-09-03T23:27:20.593Z,29.10
2022-09-03T23:29:57.859Z,29.01
2022-09-03T23:32:33.234Z,28.96
2022-09-03T23:35:13.583Z,28.85
2022-09-03T23:37:57.051Z,28.96
2022-09-03T23:40:34.870Z,28.79
2022-09-03T23:43:12.554Z,28.93
2022-09-03T23:45:50.856Z,28.84
2022-09-03T23:48:39.361Z,28.84
2022-09-03T23:51:47.571Z,29.03
2022-09-03T23:54:40.913Z,29.02
2022-09-03T23:57:33.304Z,29.14
